sensor_id;sensor_type;location;lat;lon;timestamp;P1;durP1;ratioP1;P2;durP2;ratioP2
12703;SDS011;6416;52.182;7.650;2023-04-24T00:00:25;2.10;;;1.43;;
12703;SDS011;6416;52.182;7.650;2023-04-24T00:02:50;1.57;;;1.47;;
12703;SDS011;6416;52.182;7.650;2023-04-24T00:05:16;1.50;;;1.40;;
12703;SDS011;6416;52.182;7.650;2023-04-24T00:07:42;1.77;;;1.60;;
12703;SDS011;6416;52.182;7.650;2023-04-24T00:10:09;1.43;;;1.33;;
12703;SDS011;6416;52.182;7.650;2023-04-24T00:12:34;1.83;;;1.40;;
12703;SDS011;6416;52.182;7.650;2023-04-24T00:15:00;1.97;;;1.30;;
12703;SDS011;6416;52.182;7.650;2023-04-24T00:17:26;1.30;;;1.20;;
12703;SDS011;6416;52.182;7.650;2023-04-24T00:19:51;1.40;;;1.30;;
12703;SDS011;6416;52.182;7.650;2023-04-24T00:22:17;1.67;;;1.57;;
12703;SDS011;6416;52.182;7.650;2023-04-24T00:24:43;1.70;;;1.60;;
12703;SDS011;6416;52.182;7.650;2023-04-24T00:27:08;1.80;;;1.70;;
12703;SDS011;6416;52.182;7.650;2023-04-24T00:29:34;1.90;;;1.80;;
12703;SDS011;6416;52.182;7.650;2023-04-24T00:31:59;2.00;;;1.80;;
12703;SDS011;6416;52.182;7.650;2023-04-24T00:34:25;1.80;;;1.70;;
12703;SDS011;6416;52.182;7.650;2023-04-24T00:36:50;1.63;;;1.53;;
12703;SDS011;6416;52.182;7.650;2023-04-24T00:39:16;1.90;;;1.80;;
12703;SDS011;6416;52.182;7.650;2023-04-24T00:41:41;1.97;;;1.87;;
12703;SDS011;6416;52.182;7.650;2023-04-24T00:44:07;2.60;;;1.97;;
12703;SDS011;6416;52.182;7.650;2023-04-24T00:46:33;3.50;;;1.93;;
12703;SDS011;6416;52.182;7.650;2023-04-24T00:48:59;2.10;;;2.00;;
12703;SDS011;6416;52.182;7.650;2023-04-24T00:51:24;2.07;;;1.87;;
12703;SDS011;6416;52.182;7.650;2023-04-24T00:53:50;2.00;;;1.90;;
12703;SDS011;6416;52.182;7.650;2023-04-24T00:56:15;1.97;;;1.87;;
12703;SDS011;6416;52.182;7.650;2023-04-24T00:58:41;1.97;;;1.83;;
12703;SDS011;6416;52.182;7.650;2023-04-24T01:01:07;2.13;;;1.93;;
12703;SDS011;6416;52.182;7.650;2023-04-24T01:03:34;2.17;;;1.97;;
12703;SDS011;6416;52.182;7.650;2023-04-24T01:06:00;1.83;;;1.73;;
12703;SDS011;6416;52.182;7.650;2023-04-24T01:08:26;3.70;;;1.90;;
12703;SDS011;6416;52.182;7.650;2023-04-24T01:10:53;3.20;;;2.10;;
12703;SDS011;6416;52.182;7.650;2023-04-24T01:13:19;2.17;;;1.90;;
12703;SDS011;6416;52.182;7.650;2023-04-24T01:15:45;2.00;;;1.90;;
12703;SDS011;6416;52.182;7.650;2023-04-24T01:18:14;1.80;;;1.70;;
12703;SDS011;6416;52.182;7.650;2023-04-24T01:20:41;2.30;;;2.10;;
12703;SDS011;6416;52.182;7.650;2023-04-24T01:23:07;2.20;;;2.00;;
12703;SDS011;6416;52.182;7.650;2023-04-24T01:25:33;2.30;;;2.10;;
12703;SDS011;6416;52.182;7.650;2023-04-24T01:27:59;2.07;;;1.97;;
12703;SDS011;6416;52.182;7.650;2023-04-24T01:30:25;1.97;;;1.77;;
12703;SDS011;6416;52.182;7.650;2023-04-24T01:32:51;2.73;;;2.03;;
12703;SDS011;6416;52.182;7.650;2023-04-24T01:35:17;1.93;;;1.83;;
12703;SDS011;6416;52.182;7.650;2023-04-24T01:37:43;2.30;;;2.10;;
12703;SDS011;6416;52.182;7.650;2023-04-24T01:40:09;2.13;;;1.93;;
12703;SDS011;6416;52.182;7.650;2023-04-24T01:42:35;2.33;;;2.03;;
12703;SDS011;6416;52.182;7.650;2023-04-24T01:45:01;2.10;;;1.97;;
12703;SDS011;6416;52.182;7.650;2023-04-24T01:47:28;2.87;;;2.10;;
12703;SDS011;6416;52.182;7.650;2023-04-24T01:49:54;2.00;;;1.90;;
12703;SDS011;6416;52.182;7.650;2023-04-24T01:52:20;2.00;;;1.90;;
12703;SDS011;6416;52.182;7.650;2023-04-24T01:54:45;2.07;;;1.97;;
12703;SDS011;6416;52.182;7.650;2023-04-24T01:57:11;1.70;;;1.60;;
12703;SDS011;6416;52.182;7.650;2023-04-24T01:59:36;1.93;;;1.77;;
12703;SDS011;6416;52.182;7.650;2023-04-24T02:02:02;2.20;;;2.00;;
12703;SDS011;6416;52.182;7.650;2023-04-24T02:04:28;2.20;;;2.00;;
12703;SDS011;6416;52.182;7.650;2023-04-24T02:06:53;2.10;;;1.90;;
12703;SDS011;6416;52.182;7.650;2023-04-24T02:09:19;2.17;;;1.90;;
12703;SDS011;6416;52.182;7.650;2023-04-24T02:11:45;2.10;;;1.90;;
12703;SDS011;6416;52.182;7.650;2023-04-24T02:14:10;2.13;;;1.90;;
12703;SDS011;6416;52.182;7.650;2023-04-24T02:16:36;3.23;;;1.77;;
12703;SDS011;6416;52.182;7.650;2023-04-24T02:19:02;1.93;;;1.80;;
12703;SDS011;6416;52.182;7.650;2023-04-24T02:21:28;2.20;;;2.00;;
12703;SDS011;6416;52.182;7.650;2023-04-24T02:23:53;2.33;;;2.10;;
12703;SDS011;6416;52.182;7.650;2023-04-24T02:26:19;2.33;;;2.17;;
12703;SDS011;6416;52.182;7.650;2023-04-24T02:28:44;2.73;;;2.00;;
12703;SDS011;6416;52.182;7.650;2023-04-24T02:31:10;2.23;;;2.07;;
12703;SDS011;6416;52.182;7.650;2023-04-24T02:33:35;2.30;;;2.00;;
12703;SDS011;6416;52.182;7.650;2023-04-24T02:36:01;2.50;;;2.30;;
12703;SDS011;6416;52.182;7.650;2023-04-24T02:38:27;2.40;;;2.30;;
12703;SDS011;6416;52.182;7.650;2023-04-24T02:40:53;2.47;;;2.27;;
12703;SDS011;6416;52.182;7.650;2023-04-24T02:43:18;2.00;;;1.90;;
12703;SDS011;6416;52.182;7.650;2023-04-24T02:45:44;2.60;;;2.40;;
12703;SDS011;6416;52.182;7.650;2023-04-24T02:48:09;2.87;;;2.17;;
12703;SDS011;6416;52.182;7.650;2023-04-24T02:50:34;2.60;;;2.33;;
12703;SDS011;6416;52.182;7.650;2023-04-24T02:53:00;2.73;;;2.10;;
12703;SDS011;6416;52.182;7.650;2023-04-24T02:55:25;2.40;;;2.20;;
12703;SDS011;6416;52.182;7.650;2023-04-24T02:57:51;2.77;;;2.43;;
12703;SDS011;6416;52.182;7.650;2023-04-24T03:00:16;2.27;;;2.10;;
12703;SDS011;6416;52.182;7.650;2023-04-24T03:02:42;2.50;;;2.30;;
12703;SDS011;6416;52.182;7.650;2023-04-24T03:05:08;2.43;;;2.27;;
12703;SDS011;6416;52.182;7.650;2023-04-24T03:07:33;3.07;;;2.87;;
12703;SDS011;6416;52.182;7.650;2023-04-24T03:09:59;3.40;;;3.10;;
12703;SDS011;6416;52.182;7.650;2023-04-24T03:12:24;3.60;;;3.30;;
12703;SDS011;6416;52.182;7.650;2023-04-24T03:14:50;3.57;;;3.23;;
12703;SDS011;6416;52.182;7.650;2023-04-24T03:17:15;3.77;;;3.47;;
12703;SDS011;6416;52.182;7.650;2023-04-24T03:19:41;4.10;;;3.30;;
12703;SDS011;6416;52.182;7.650;2023-04-24T03:22:06;4.20;;;3.50;;
12703;SDS011;6416;52.182;7.650;2023-04-24T03:24:32;4.07;;;3.67;;
12703;SDS011;6416;52.182;7.650;2023-04-24T03:26:57;4.13;;;3.83;;
12703;SDS011;6416;52.182;7.650;2023-04-24T03:29:23;4.73;;;4.33;;
12703;SDS011;6416;52.182;7.650;2023-04-24T03:31:48;5.30;;;4.80;;
12703;SDS011;6416;52.182;7.650;2023-04-24T03:34:14;5.00;;;4.60;;
12703;SDS011;6416;52.182;7.650;2023-04-24T03:36:39;5.40;;;4.90;;
12703;SDS011;6416;52.182;7.650;2023-04-24T03:39:04;5.07;;;4.67;;
12703;SDS011;6416;52.182;7.650;2023-04-24T03:41:30;5.10;;;4.60;;
12703;SDS011;6416;52.182;7.650;2023-04-24T03:43:56;6.27;;;4.27;;
12703;SDS011;6416;52.182;7.650;2023-04-24T03:46:21;4.80;;;4.40;;
12703;SDS011;6416;52.182;7.650;2023-04-24T03:48:47;5.97;;;5.40;;
12703;SDS011;6416;52.182;7.650;2023-04-24T03:51:12;6.03;;;5.53;;
12703;SDS011;6416;52.182;7.650;2023-04-24T03:53:37;6.20;;;5.60;;
12703;SDS011;6416;52.182;7.650;2023-04-24T03:56:03;6.77;;;6.17;;
12703;SDS011;6416;52.182;7.650;2023-04-24T03:58:28;6.03;;;5.63;;
12703;SDS011;6416;52.182;7.650;2023-04-24T04:00:54;6.80;;;6.30;;
12703;SDS011;6416;52.182;7.650;2023-04-24T04:03:19;7.10;;;6.50;;
12703;SDS011;6416;52.182;7.650;2023-04-24T04:05:45;7.23;;;6.63;;
12703;SDS011;6416;52.182;7.650;2023-04-24T04:08:10;7.30;;;6.70;;
12703;SDS011;6416;52.182;7.650;2023-04-24T04:10:36;8.47;;;7.80;;
12703;SDS011;6416;52.182;7.650;2023-04-24T04:13:01;9.50;;;8.60;;
12703;SDS011;6416;52.182;7.650;2023-04-24T04:15:27;9.23;;;8.43;;
12703;SDS011;6416;52.182;7.650;2023-04-24T04:17:52;9.53;;;8.73;;
12703;SDS011;6416;52.182;7.650;2023-04-24T04:20:17;9.67;;;8.83;;
12703;SDS011;6416;52.182;7.650;2023-04-24T04:22:43;10.10;;;9.10;;
12703;SDS011;6416;52.182;7.650;2023-04-24T04:25:08;10.40;;;9.40;;
12703;SDS011;6416;52.182;7.650;2023-04-24T04:27:34;12.53;;;11.40;;
12703;SDS011;6416;52.182;7.650;2023-04-24T04:30:00;10.57;;;9.57;;
12703;SDS011;6416;52.182;7.650;2023-04-24T04:32:26;11.13;;;10.13;;
12703;SDS011;6416;52.182;7.650;2023-04-24T04:34:51;10.30;;;9.30;;
12703;SDS011;6416;52.182;7.650;2023-04-24T04:37:17;10.30;;;9.23;;
12703;SDS011;6416;52.182;7.650;2023-04-24T04:39:42;10.97;;;9.97;;
12703;SDS011;6416;52.182;7.650;2023-04-24T04:42:08;10.60;;;9.70;;
12703;SDS011;6416;52.182;7.650;2023-04-24T04:44:33;10.97;;;9.87;;
12703;SDS011;6416;52.182;7.650;2023-04-24T04:46:59;11.10;;;10.10;;
12703;SDS011;6416;52.182;7.650;2023-04-24T04:49:24;12.30;;;9.33;;
12703;SDS011;6416;52.182;7.650;2023-04-24T04:51:50;11.30;;;9.87;;
12703;SDS011;6416;52.182;7.650;2023-04-24T04:54:15;9.80;;;8.87;;
12703;SDS011;6416;52.182;7.650;2023-04-24T04:56:41;9.03;;;8.23;;
12703;SDS011;6416;52.182;7.650;2023-04-24T04:59:06;11.03;;;9.87;;
12703;SDS011;6416;52.182;7.650;2023-04-24T05:01:32;10.40;;;9.30;;
12703;SDS011;6416;52.182;7.650;2023-04-24T05:03:57;9.40;;;8.50;;
12703;SDS011;6416;52.182;7.650;2023-04-24T05:06:23;10.20;;;9.20;;
12703;SDS011;6416;52.182;7.650;2023-04-24T05:08:48;10.47;;;9.40;;
12703;SDS011;6416;52.182;7.650;2023-04-24T05:11:14;9.43;;;8.53;;
12703;SDS011;6416;52.182;7.650;2023-04-24T05:13:39;10.00;;;9.07;;
12703;SDS011;6416;52.182;7.650;2023-04-24T05:16:05;8.63;;;7.93;;
12703;SDS011;6416;52.182;7.650;2023-04-24T05:18:31;9.67;;;8.80;;
12703;SDS011;6416;52.182;7.650;2023-04-24T05:20:56;9.63;;;8.70;;
12703;SDS011;6416;52.182;7.650;2023-04-24T05:23:22;9.40;;;8.50;;
12703;SDS011;6416;52.182;7.650;2023-04-24T05:25:47;10.23;;;9.13;;
12703;SDS011;6416;52.182;7.650;2023-04-24T05:28:13;11.00;;;9.87;;
12703;SDS011;6416;52.182;7.650;2023-04-24T05:30:38;11.30;;;10.30;;
12703;SDS011;6416;52.182;7.650;2023-04-24T05:33:04;11.23;;;10.03;;
12703;SDS011;6416;52.182;7.650;2023-04-24T05:35:29;10.97;;;10.00;;
12703;SDS011;6416;52.182;7.650;2023-04-24T05:37:54;11.43;;;10.43;;
12703;SDS011;6416;52.182;7.650;2023-04-24T05:40:20;11.73;;;10.63;;
12703;SDS011;6416;52.182;7.650;2023-04-24T05:42:45;11.93;;;10.77;;
12703;SDS011;6416;52.182;7.650;2023-04-24T05:45:11;11.53;;;10.43;;
12703;SDS011;6416;52.182;7.650;2023-04-24T05:47:36;12.67;;;11.43;;
12703;SDS011;6416;52.182;7.650;2023-04-24T05:50:02;12.73;;;11.53;;
12703;SDS011;6416;52.182;7.650;2023-04-24T05:52:28;12.10;;;11.10;;
12703;SDS011;6416;52.182;7.650;2023-04-24T05:54:53;12.90;;;11.73;;
12703;SDS011;6416;52.182;7.650;2023-04-24T05:57:19;13.00;;;11.77;;
12703;SDS011;6416;52.182;7.650;2023-04-24T05:59:44;12.37;;;11.13;;
12703;SDS011;6416;52.182;7.650;2023-04-24T06:02:10;12.03;;;11.00;;
12703;SDS011;6416;52.182;7.650;2023-04-24T06:04:35;13.23;;;11.73;;
12703;SDS011;6416;52.182;7.650;2023-04-24T06:07:00;12.93;;;11.57;;
12703;SDS011;6416;52.182;7.650;2023-04-24T06:09:26;12.07;;;10.97;;
12703;SDS011;6416;52.182;7.650;2023-04-24T06:11:53;12.83;;;11.57;;
12703;SDS011;6416;52.182;7.650;2023-04-24T06:14:19;11.53;;;10.37;;
12703;SDS011;6416;52.182;7.650;2023-04-24T06:16:45;12.77;;;11.03;;
12703;SDS011;6416;52.182;7.650;2023-04-24T06:19:10;11.77;;;10.67;;
12703;SDS011;6416;52.182;7.650;2023-04-24T06:21:36;12.77;;;11.47;;
12703;SDS011;6416;52.182;7.650;2023-04-24T06:24:01;11.47;;;10.47;;
12703;SDS011;6416;52.182;7.650;2023-04-24T06:26:27;13.40;;;12.17;;
12703;SDS011;6416;52.182;7.650;2023-04-24T06:28:52;12.80;;;11.60;;
12703;SDS011;6416;52.182;7.650;2023-04-24T06:31:18;13.73;;;11.63;;
12703;SDS011;6416;52.182;7.650;2023-04-24T06:33:44;11.03;;;10.03;;
12703;SDS011;6416;52.182;7.650;2023-04-24T06:36:09;11.77;;;10.67;;
12703;SDS011;6416;52.182;7.650;2023-04-24T06:38:34;11.53;;;10.33;;
12703;SDS011;6416;52.182;7.650;2023-04-24T06:41:00;11.70;;;10.60;;
12703;SDS011;6416;52.182;7.650;2023-04-24T06:43:25;10.67;;;9.70;;
12703;SDS011;6416;52.182;7.650;2023-04-24T06:45:51;10.63;;;9.63;;
12703;SDS011;6416;52.182;7.650;2023-04-24T06:48:16;10.90;;;9.83;;
12703;SDS011;6416;52.182;7.650;2023-04-24T06:50:42;11.63;;;9.73;;
12703;SDS011;6416;52.182;7.650;2023-04-24T06:53:07;9.97;;;9.03;;
12703;SDS011;6416;52.182;7.650;2023-04-24T06:55:33;11.00;;;10.00;;
12703;SDS011;6416;52.182;7.650;2023-04-24T06:58:00;11.63;;;10.33;;
12703;SDS011;6416;52.182;7.650;2023-04-24T07:00:25;12.27;;;9.87;;
12703;SDS011;6416;52.182;7.650;2023-04-24T07:02:51;11.03;;;9.93;;
12703;SDS011;6416;52.182;7.650;2023-04-24T07:05:16;10.37;;;9.40;;
12703;SDS011;6416;52.182;7.650;2023-04-24T07:07:42;9.80;;;8.90;;
12703;SDS011;6416;52.182;7.650;2023-04-24T07:10:07;10.07;;;8.40;;
12703;SDS011;6416;52.182;7.650;2023-04-24T07:12:33;8.60;;;7.70;;
12703;SDS011;6416;52.182;7.650;2023-04-24T07:15:00;7.47;;;6.53;;
12703;SDS011;6416;52.182;7.650;2023-04-24T07:17:25;8.10;;;7.40;;
12703;SDS011;6416;52.182;7.650;2023-04-24T07:19:51;8.00;;;6.97;;
12703;SDS011;6416;52.182;7.650;2023-04-24T07:22:17;7.80;;;7.00;;
12703;SDS011;6416;52.182;7.650;2023-04-24T07:24:45;7.80;;;6.10;;
12703;SDS011;6416;52.182;7.650;2023-04-24T07:27:10;6.53;;;5.93;;
12703;SDS011;6416;52.182;7.650;2023-04-24T07:29:36;6.37;;;5.77;;
12703;SDS011;6416;52.182;7.650;2023-04-24T07:32:01;6.60;;;5.70;;
12703;SDS011;6416;52.182;7.650;2023-04-24T07:34:27;5.93;;;5.33;;
12703;SDS011;6416;52.182;7.650;2023-04-24T07:36:52;6.53;;;6.00;;
12703;SDS011;6416;52.182;7.650;2023-04-24T07:39:18;6.13;;;5.63;;
12703;SDS011;6416;52.182;7.650;2023-04-24T07:41:43;7.20;;;6.50;;
12703;SDS011;6416;52.182;7.650;2023-04-24T07:44:09;6.87;;;6.27;;
12703;SDS011;6416;52.182;7.650;2023-04-24T07:46:34;9.17;;;8.30;;
12703;SDS011;6416;52.182;7.650;2023-04-24T07:49:00;7.60;;;7.00;;
12703;SDS011;6416;52.182;7.650;2023-04-24T07:51:25;8.17;;;7.40;;
12703;SDS011;6416;52.182;7.650;2023-04-24T07:53:51;7.30;;;6.60;;
12703;SDS011;6416;52.182;7.650;2023-04-24T07:56:16;7.70;;;7.10;;
12703;SDS011;6416;52.182;7.650;2023-04-24T07:58:42;8.60;;;7.80;;
12703;SDS011;6416;52.182;7.650;2023-04-24T08:01:07;7.33;;;6.80;;
12703;SDS011;6416;52.182;7.650;2023-04-24T08:03:33;8.03;;;7.40;;
12703;SDS011;6416;52.182;7.650;2023-04-24T08:05:58;7.50;;;6.80;;
12703;SDS011;6416;52.182;7.650;2023-04-24T08:08:24;6.50;;;6.00;;
12703;SDS011;6416;52.182;7.650;2023-04-24T08:10:50;7.17;;;6.57;;
12703;SDS011;6416;52.182;7.650;2023-04-24T08:13:15;6.50;;;6.00;;
12703;SDS011;6416;52.182;7.650;2023-04-24T08:15:41;6.53;;;6.03;;
12703;SDS011;6416;52.182;7.650;2023-04-24T08:18:06;6.20;;;5.73;;
12703;SDS011;6416;52.182;7.650;2023-04-24T08:20:32;6.83;;;6.20;;
12703;SDS011;6416;52.182;7.650;2023-04-24T08:22:57;6.43;;;5.93;;
12703;SDS011;6416;52.182;7.650;2023-04-24T08:25:23;7.80;;;5.40;;
12703;SDS011;6416;52.182;7.650;2023-04-24T08:27:48;6.10;;;5.60;;
12703;SDS011;6416;52.182;7.650;2023-04-24T08:30:14;5.17;;;4.87;;
12703;SDS011;6416;52.182;7.650;2023-04-24T08:32:40;5.67;;;5.27;;
12703;SDS011;6416;52.182;7.650;2023-04-24T08:35:05;5.93;;;5.50;;
12703;SDS011;6416;52.182;7.650;2023-04-24T08:37:31;5.70;;;5.27;;
12703;SDS011;6416;52.182;7.650;2023-04-24T08:39:57;6.50;;;6.00;;
12703;SDS011;6416;52.182;7.650;2023-04-24T08:42:23;5.77;;;5.37;;
12703;SDS011;6416;52.182;7.650;2023-04-24T08:44:48;4.93;;;4.53;;
12703;SDS011;6416;52.182;7.650;2023-04-24T08:47:14;5.30;;;4.80;;
12703;SDS011;6416;52.182;7.650;2023-04-24T08:49:40;5.50;;;4.77;;
12703;SDS011;6416;52.182;7.650;2023-04-24T08:52:07;5.63;;;5.00;;
12703;SDS011;6416;52.182;7.650;2023-04-24T08:54:35;4.93;;;4.53;;
12703;SDS011;6416;52.182;7.650;2023-04-24T08:57:02;4.93;;;4.60;;
12703;SDS011;6416;52.182;7.650;2023-04-24T08:59:28;4.63;;;4.23;;
12703;SDS011;6416;52.182;7.650;2023-04-24T09:01:55;4.63;;;4.33;;
12703;SDS011;6416;52.182;7.650;2023-04-24T09:04:21;4.30;;;4.00;;
12703;SDS011;6416;52.182;7.650;2023-04-24T09:06:51;4.80;;;4.40;;
12703;SDS011;6416;52.182;7.650;2023-04-24T09:09:19;4.57;;;4.17;;
12703;SDS011;6416;52.182;7.650;2023-04-24T09:11:46;5.07;;;4.53;;
12703;SDS011;6416;52.182;7.650;2023-04-24T09:14:11;4.27;;;3.97;;
12703;SDS011;6416;52.182;7.650;2023-04-24T09:16:38;4.20;;;3.90;;
12703;SDS011;6416;52.182;7.650;2023-04-24T09:19:03;4.27;;;3.97;;
12703;SDS011;6416;52.182;7.650;2023-04-24T09:21:32;4.03;;;3.73;;
12703;SDS011;6416;52.182;7.650;2023-04-24T09:24:01;3.93;;;3.63;;
12703;SDS011;6416;52.182;7.650;2023-04-24T09:26:31;4.03;;;3.73;;
12703;SDS011;6416;52.182;7.650;2023-04-24T09:28:59;3.93;;;3.63;;
12703;SDS011;6416;52.182;7.650;2023-04-24T09:31:26;3.70;;;3.40;;
12703;SDS011;6416;52.182;7.650;2023-04-24T09:36:26;3.00;;;2.70;;
12703;SDS011;6416;52.182;7.650;2023-04-24T09:39:02;3.27;;;2.60;;
12703;SDS011;6416;52.182;7.650;2023-04-24T09:41:44;2.83;;;2.63;;
12703;SDS011;6416;52.182;7.650;2023-04-24T09:44:12;3.07;;;2.77;;
12703;SDS011;6416;52.182;7.650;2023-04-24T09:46:39;2.70;;;2.50;;
12703;SDS011;6416;52.182;7.650;2023-04-24T09:49:09;2.57;;;2.37;;
12703;SDS011;6416;52.182;7.650;2023-04-24T09:51:37;2.53;;;2.10;;
12703;SDS011;6416;52.182;7.650;2023-04-24T09:54:04;2.40;;;2.10;;
12703;SDS011;6416;52.182;7.650;2023-04-24T09:56:42;2.00;;;1.90;;
12703;SDS011;6416;52.182;7.650;2023-04-24T09:59:08;2.33;;;2.17;;
12703;SDS011;6416;52.182;7.650;2023-04-24T10:01:34;2.47;;;1.90;;
12703;SDS011;6416;52.182;7.650;2023-04-24T10:03:59;2.00;;;1.90;;
12703;SDS011;6416;52.182;7.650;2023-04-24T10:06:32;2.03;;;1.93;;
12703;SDS011;6416;52.182;7.650;2023-04-24T10:08:58;2.30;;;2.10;;
12703;SDS011;6416;52.182;7.650;2023-04-24T10:11:26;3.40;;;2.30;;
12703;SDS011;6416;52.182;7.650;2023-04-24T10:13:52;2.10;;;1.90;;
12703;SDS011;6416;52.182;7.650;2023-04-24T10:16:18;2.33;;;2.13;;
12703;SDS011;6416;52.182;7.650;2023-04-24T10:18:45;2.10;;;1.90;;
12703;SDS011;6416;52.182;7.650;2023-04-24T10:21:13;2.20;;;1.80;;
12703;SDS011;6416;52.182;7.650;2023-04-24T10:23:40;1.90;;;1.80;;
12703;SDS011;6416;52.182;7.650;2023-04-24T10:26:08;1.93;;;1.80;;
12703;SDS011;6416;52.182;7.650;2023-04-24T10:28:34;1.57;;;1.47;;
12703;SDS011;6416;52.182;7.650;2023-04-24T10:31:01;1.60;;;1.50;;
12703;SDS011;6416;52.182;7.650;2023-04-24T10:33:27;2.37;;;1.33;;
12703;SDS011;6416;52.182;7.650;2023-04-24T10:35:55;2.13;;;1.57;;
12703;SDS011;6416;52.182;7.650;2023-04-24T10:38:22;2.03;;;1.70;;
12703;SDS011;6416;52.182;7.650;2023-04-24T10:40:49;2.00;;;1.70;;
12703;SDS011;6416;52.182;7.650;2023-04-24T10:43:16;1.87;;;1.70;;
12703;SDS011;6416;52.182;7.650;2023-04-24T10:45:45;2.30;;;1.67;;
12703;SDS011;6416;52.182;7.650;2023-04-24T10:48:28;2.23;;;1.70;;
12703;SDS011;6416;52.182;7.650;2023-04-24T10:50:54;2.10;;;1.60;;
12703;SDS011;6416;52.182;7.650;2023-04-24T10:53:20;2.60;;;2.30;;
12703;SDS011;6416;52.182;7.650;2023-04-24T10:55:58;2.73;;;2.50;;
12703;SDS011;6416;52.182;7.650;2023-04-24T10:58:39;3.23;;;2.93;;
12703;SDS011;6416;52.182;7.650;2023-04-24T11:01:05;4.40;;;3.40;;
12703;SDS011;6416;52.182;7.650;2023-04-24T11:03:32;5.70;;;3.80;;
12703;SDS011;6416;52.182;7.650;2023-04-24T11:08:37;5.20;;;4.50;;
12703;SDS011;6416;52.182;7.650;2023-04-24T11:11:11;5.07;;;4.57;;
12703;SDS011;6416;52.182;7.650;2023-04-24T11:21:41;3.77;;;3.47;;
12703;SDS011;6416;52.182;7.650;2023-04-24T11:27:13;5.30;;;3.93;;
12703;SDS011;6416;52.182;7.650;2023-04-24T11:29:44;3.87;;;3.50;;
12703;SDS011;6416;52.182;7.650;2023-04-24T11:32:16;5.10;;;3.80;;
12703;SDS011;6416;52.182;7.650;2023-04-24T11:34:45;4.20;;;3.60;;
12703;SDS011;6416;52.182;7.650;2023-04-24T11:37:11;5.50;;;3.97;;
12703;SDS011;6416;52.182;7.650;2023-04-24T11:39:38;4.10;;;3.70;;
12703;SDS011;6416;52.182;7.650;2023-04-24T11:42:03;3.73;;;3.43;;
12703;SDS011;6416;52.182;7.650;2023-04-24T11:44:29;4.10;;;3.70;;
12703;SDS011;6416;52.182;7.650;2023-04-24T11:46:56;4.27;;;3.80;;
12703;SDS011;6416;52.182;7.650;2023-04-24T11:49:21;5.03;;;3.83;;
12703;SDS011;6416;52.182;7.650;2023-04-24T11:51:47;4.13;;;3.73;;
12703;SDS011;6416;52.182;7.650;2023-04-24T11:54:12;3.73;;;3.43;;
12703;SDS011;6416;52.182;7.650;2023-04-24T11:56:38;4.07;;;3.33;;
12703;SDS011;6416;52.182;7.650;2023-04-24T11:59:04;5.13;;;3.77;;
12703;SDS011;6416;52.182;7.650;2023-04-24T12:01:29;4.63;;;3.60;;
12703;SDS011;6416;52.182;7.650;2023-04-24T12:04:06;3.80;;;2.80;;
12703;SDS011;6416;52.182;7.650;2023-04-24T12:06:32;3.80;;;2.70;;
12703;SDS011;6416;52.182;7.650;2023-04-24T12:08:57;2.97;;;2.30;;
12703;SDS011;6416;52.182;7.650;2023-04-24T12:11:23;3.07;;;2.10;;
12703;SDS011;6416;52.182;7.650;2023-04-24T12:13:48;3.17;;;2.17;;
12703;SDS011;6416;52.182;7.650;2023-04-24T12:16:14;2.60;;;2.00;;
12703;SDS011;6416;52.182;7.650;2023-04-24T12:18:43;2.43;;;1.83;;
12703;SDS011;6416;52.182;7.650;2023-04-24T12:21:19;3.03;;;1.80;;
12703;SDS011;6416;52.182;7.650;2023-04-24T12:23:46;2.00;;;1.80;;
12703;SDS011;6416;52.182;7.650;2023-04-24T12:26:18;2.33;;;1.73;;
12703;SDS011;6416;52.182;7.650;2023-04-24T12:28:45;2.70;;;1.73;;
12703;SDS011;6416;52.182;7.650;2023-04-24T12:31:12;3.10;;;2.10;;
12703;SDS011;6416;52.182;7.650;2023-04-24T12:33:38;3.30;;;1.90;;
12703;SDS011;6416;52.182;7.650;2023-04-24T12:36:03;2.67;;;1.93;;
12703;SDS011;6416;52.182;7.650;2023-04-24T12:38:29;3.37;;;2.20;;
12703;SDS011;6416;52.182;7.650;2023-04-24T12:41:08;4.07;;;2.10;;
12703;SDS011;6416;52.182;7.650;2023-04-24T12:43:34;4.67;;;2.40;;
12703;SDS011;6416;52.182;7.650;2023-04-24T12:46:00;3.00;;;2.17;;
12703;SDS011;6416;52.182;7.650;2023-04-24T12:48:26;3.20;;;2.43;;
12703;SDS011;6416;52.182;7.650;2023-04-24T12:50:52;4.33;;;2.23;;
12703;SDS011;6416;52.182;7.650;2023-04-24T12:53:17;3.50;;;2.30;;
12703;SDS011;6416;52.182;7.650;2023-04-24T12:55:43;3.70;;;2.60;;
12703;SDS011;6416;52.182;7.650;2023-04-24T12:58:09;4.80;;;2.33;;
12703;SDS011;6416;52.182;7.650;2023-04-24T13:00:36;3.97;;;2.70;;
12703;SDS011;6416;52.182;7.650;2023-04-24T13:03:01;4.20;;;2.60;;
12703;SDS011;6416;52.182;7.650;2023-04-24T13:05:27;5.33;;;2.50;;
12703;SDS011;6416;52.182;7.650;2023-04-24T13:07:53;5.87;;;2.77;;
12703;SDS011;6416;52.182;7.650;2023-04-24T13:10:18;6.27;;;2.60;;
12703;SDS011;6416;52.182;7.650;2023-04-24T13:12:44;3.83;;;2.43;;
12703;SDS011;6416;52.182;7.650;2023-04-24T13:15:09;6.33;;;2.73;;
12703;SDS011;6416;52.182;7.650;2023-04-24T13:17:35;4.87;;;2.50;;
12703;SDS011;6416;52.182;7.650;2023-04-24T13:20:00;3.57;;;2.10;;
12703;SDS011;6416;52.182;7.650;2023-04-24T13:22:26;3.43;;;2.50;;
12703;SDS011;6416;52.182;7.650;2023-04-24T13:24:51;4.97;;;2.30;;
12703;SDS011;6416;52.182;7.650;2023-04-24T13:27:17;4.27;;;2.57;;
12703;SDS011;6416;52.182;7.650;2023-04-24T13:29:43;4.70;;;2.80;;
12703;SDS011;6416;52.182;7.650;2023-04-24T13:32:08;3.63;;;2.37;;
12703;SDS011;6416;52.182;7.650;2023-04-24T13:34:34;3.90;;;2.47;;
12703;SDS011;6416;52.182;7.650;2023-04-24T13:37:00;6.90;;;2.70;;
12703;SDS011;6416;52.182;7.650;2023-04-24T13:39:26;3.90;;;2.27;;
12703;SDS011;6416;52.182;7.650;2023-04-24T13:41:52;2.90;;;2.10;;
12703;SDS011;6416;52.182;7.650;2023-04-24T13:44:20;3.93;;;2.20;;
12703;SDS011;6416;52.182;7.650;2023-04-24T13:46:47;2.90;;;2.17;;
12703;SDS011;6416;52.182;7.650;2023-04-24T13:49:14;3.70;;;2.30;;
12703;SDS011;6416;52.182;7.650;2023-04-24T13:51:40;4.30;;;2.40;;
12703;SDS011;6416;52.182;7.650;2023-04-24T13:54:06;3.93;;;2.90;;
12703;SDS011;6416;52.182;7.650;2023-04-24T13:56:32;3.70;;;2.70;;
12703;SDS011;6416;52.182;7.650;2023-04-24T13:58:58;5.67;;;2.80;;
12703;SDS011;6416;52.182;7.650;2023-04-24T14:01:23;3.97;;;2.83;;
12703;SDS011;6416;52.182;7.650;2023-04-24T14:03:49;3.10;;;2.47;;
12703;SDS011;6416;52.182;7.650;2023-04-24T14:06:14;4.73;;;2.70;;
12703;SDS011;6416;52.182;7.650;2023-04-24T14:08:40;4.03;;;2.70;;
12703;SDS011;6416;52.182;7.650;2023-04-24T14:11:05;5.70;;;3.10;;
12703;SDS011;6416;52.182;7.650;2023-04-24T14:13:31;3.07;;;2.30;;
12703;SDS011;6416;52.182;7.650;2023-04-24T14:15:56;4.47;;;2.67;;
12703;SDS011;6416;52.182;7.650;2023-04-24T14:18:23;6.97;;;2.90;;
12703;SDS011;6416;52.182;7.650;2023-04-24T14:20:48;5.07;;;2.90;;
12703;SDS011;6416;52.182;7.650;2023-04-24T14:23:14;4.10;;;2.47;;
12703;SDS011;6416;52.182;7.650;2023-04-24T14:25:39;5.33;;;1.90;;
12703;SDS011;6416;52.182;7.650;2023-04-24T14:28:05;2.73;;;1.87;;
12703;SDS011;6416;52.182;7.650;2023-04-24T14:30:31;3.13;;;1.87;;
12703;SDS011;6416;52.182;7.650;2023-04-24T14:32:56;4.17;;;1.70;;
12703;SDS011;6416;52.182;7.650;2023-04-24T14:35:22;2.47;;;2.00;;
12703;SDS011;6416;52.182;7.650;2023-04-24T14:37:47;2.87;;;2.00;;
12703;SDS011;6416;52.182;7.650;2023-04-24T14:40:12;2.20;;;1.73;;
12703;SDS011;6416;52.182;7.650;2023-04-24T14:42:38;1.67;;;1.50;;
12703;SDS011;6416;52.182;7.650;2023-04-24T14:45:04;2.50;;;1.70;;
12703;SDS011;6416;52.182;7.650;2023-04-24T14:47:29;1.97;;;1.60;;
12703;SDS011;6416;52.182;7.650;2023-04-24T14:49:55;1.60;;;1.50;;
12703;SDS011;6416;52.182;7.650;2023-04-24T14:52:20;3.07;;;1.80;;
12703;SDS011;6416;52.182;7.650;2023-04-24T14:54:46;2.17;;;1.70;;
12703;SDS011;6416;52.182;7.650;2023-04-24T14:57:11;3.13;;;1.23;;
12703;SDS011;6416;52.182;7.650;2023-04-24T14:59:37;1.40;;;1.20;;
12703;SDS011;6416;52.182;7.650;2023-04-24T15:02:03;1.30;;;1.20;;
12703;SDS011;6416;52.182;7.650;2023-04-24T15:04:28;1.50;;;1.33;;
12703;SDS011;6416;52.182;7.650;2023-04-24T15:06:54;3.23;;;1.40;;